createdAt,value
2019-03-27T00:01:15.400Z,100632.01
2019-03-27T00:03:46.734Z,100631.21
2019-03-27T00:06:17.901Z,100632.01
2019-03-27T00:08:49.019Z,100630.63
2019-03-27T00:11:20.159Z,100619.67
2019-03-27T00:13:51.539Z,100621.06
2019-03-27T00:16:23.007Z,100620.50
2019-03-27T00:18:54.190Z,100624.27
2019-03-27T00:21:25.451Z,100627.78
2019-03-27T00:23:56.590Z,100629.89
2019-03-27T00:26:27.787Z,100624.96
2019-03-27T00:28:58.891Z,100635.30
2019-03-27T00:31:30.174Z,100630.59
2019-03-27T00:34:01.337Z,100621.27
2019-03-27T00:36:32.902Z,100621.05
2019-03-27T00:39:04.878Z,100615.63
2019-03-27T00:41:36.018Z,100630.22
2019-03-27T00:44:08.382Z,100629.54
2019-03-27T00:46:39.524Z,100629.05
2019-03-27T00:49:10.633Z,100625.14
2019-03-27T00:51:41.772Z,100622.28
2019-03-27T00:54:12.903Z,100626.56
2019-03-27T00:56:44.079Z,100614.25
2019-03-27T00:59:15.197Z,100620.28
2019-03-27T01:01:46.542Z,100614.89
2019-03-27T01:04:17.778Z,100606.89
2019-03-27T01:06:51.080Z,100606.48
2019-03-27T01:09:22.639Z,100608.05
2019-03-27T01:11:53.913Z,100607.14
2019-03-27T01:14:25.032Z,100606.80
2019-03-27T01:16:56.166Z,100604.25
2019-03-27T01:19:27.535Z,100606.80
2019-03-27T01:21:58.546Z,100609.13
2019-03-27T01:24:29.741Z,100602.71
2019-03-27T01:27:00.820Z,100611.77
2019-03-27T01:29:31.981Z,100616.03
2019-03-27T01:32:03.014Z,100615.59
2019-03-27T01:34:34.090Z,100611.23
2019-03-27T01:37:05.198Z,100617.31
2019-03-27T01:39:37.471Z,100614.36
2019-03-27T01:42:08.540Z,100610.56
2019-03-27T01:44:39.867Z,100614.70
2019-03-27T01:47:10.929Z,100612.51
2019-03-27T01:49:41.977Z,100613.39
2019-03-27T01:52:13.194Z,100615.20
2019-03-27T01:54:44.230Z,100616.24
2019-03-27T01:57:15.228Z,100610.80
2019-03-27T01:59:46.436Z,100608.42
2019-03-27T02:02:17.450Z,100609.73
2019-03-27T02:04:48.533Z,100619.81
2019-03-27T02:07:19.604Z,100615.09
2019-03-27T02:09:50.710Z,100620.84
2019-03-27T02:12:21.781Z,100622.06
2019-03-27T02:14:52.840Z,100621.98
2019-03-27T02:17:23.973Z,100621.71
2019-03-27T02:19:55.161Z,100619.01
2019-03-27T02:22:26.307Z,100619.01
2019-03-27T02:24:57.420Z,100620.63
2019-03-27T02:27:28.528Z,100619.01
2019-03-27T02:29:59.697Z,100623.34
2019-03-27T02:32:30.930Z,100620.36
2019-03-27T02:35:02.112Z,100619.01
2019-03-27T02:37:33.203Z,100618.39
2019-03-27T02:40:06.360Z,100620.53
2019-03-27T02:42:37.380Z,100626.39
2019-03-27T02:45:08.712Z,100631.92
2019-03-27T02:47:39.780Z,100627.46
2019-03-27T02:50:10.929Z,100627.98
2019-03-27T02:52:42.199Z,100628.39
2019-03-27T02:55:13.381Z,100629.36
2019-03-27T02:57:44.759Z,100631.44
2019-03-27T03:00:16.200Z,100640.35
2019-03-27T03:02:47.370Z,100629.17
2019-03-27T03:05:18.582Z,100627.11
2019-03-27T03:07:49.780Z,100624.62
2019-03-27T03:10:21.093Z,100623.27
2019-03-27T03:12:52.324Z,100628.42
2019-03-27T03:15:23.802Z,100627.69
2019-03-27T03:17:54.970Z,100624.63
2019-03-27T03:20:26.157Z,100629.50
2019-03-27T03:22:57.536Z,100626.02
2019-03-27T03:25:28.573Z,100634.39
2019-03-27T03:27:59.718Z,100636.17
2019-03-27T03:30:30.939Z,100633.58
2019-03-27T03:33:01.948Z,100631.61
2019-03-27T03:35:33.146Z,100631.94
2019-03-27T03:38:04.151Z,100635.75
2019-03-27T03:40:35.350Z,100634.52
2019-03-27T03:43:07.018Z,100635.00
2019-03-27T03:45:38.423Z,100639.44
2019-03-27T03:48:09.603Z,100641.00
2019-03-27T03:50:42.324Z,100641.34
2019-03-27T03:53:13.989Z,100645.09
2019-03-27T03:55:45.379Z,100650.55
2019-03-27T03:58:16.923Z,100651.78
2019-03-27T04:00:48.144Z,100649.91
2019-03-27T04:03:19.188Z,100652.06
2019-03-27T04:05:50.415Z,100654.97
2019-03-27T04:08:21.853Z,100659.32
2019-03-27T04:10:53.961Z,100667.37
2019-03-27T04:13:25.020Z,100661.19
2019-03-27T04:15:56.140Z,100667.03
2019-03-27T04:18:27.268Z,100667.71
2019-03-27T04:20:58.306Z,100657.73
2019-03-27T04:23:29.426Z,100665.42
2019-03-27T04:26:09.542Z,100665.13
2019-03-27T04:28:33.526Z,100654.72
2019-03-27T04:31:04.901Z,100656.81
2019-03-27T04:33:36.044Z,100656.94
2019-03-27T04:36:07.136Z,100651.23
2019-03-27T04:38:38.377Z,100657.19
2019-03-27T04:41:09.519Z,100656.00
2019-03-27T04:43:40.795Z,100663.94
2019-03-27T04:46:11.978Z,100663.79
2019-03-27T04:48:43.295Z,100662.21
2019-03-27T04:51:14.383Z,100654.16
2019-03-27T04:53:45.410Z,100654.53
2019-03-27T04:56:16.611Z,100651.63
2019-03-27T04:58:47.658Z,100658.66
2019-03-27T05:01:18.701Z,100655.73
2019-03-27T05:03:49.999Z,100657.17
2019-03-27T05:06:21.115Z,100653.45
2019-03-27T05:08:52.392Z,100657.66
2019-03-27T05:11:25.018Z,100660.35
2019-03-27T05:13:56.419Z,100663.23
2019-03-27T05:16:27.686Z,100664.37
2019-03-27T05:18:58.808Z,100657.36
2019-03-27T05:21:29.955Z,100659.38
2019-03-27T05:24:01.082Z,100658.67
2019-03-27T05:26:32.413Z,100662.20
2019-03-27T05:29:04.057Z,100664.47
2019-03-27T05:31:36.012Z,100665.80
2019-03-27T05:34:08.428Z,100668.34
2019-03-27T05:36:39.571Z,100665.84
2019-03-27T05:39:10.645Z,100661.20
2019-03-27T05:41:41.754Z,100661.25
2019-03-27T05:44:12.924Z,100657.32
2019-03-27T05:46:44.159Z,100670.30
2019-03-27T05:49:15.267Z,100670.30
2019-03-27T05:51:46.539Z,100668.88
2019-03-27T05:54:22.067Z,100667.17
2019-03-27T05:57:05.632Z,100682.09
2019-03-27T05:59:36.791Z,100681.33
2019-03-27T06:02:07.949Z,100678.00
2019-03-27T06:04:38.968Z,100678.00
2019-03-27T06:07:10.709Z,100669.50
2019-03-27T06:09:42.298Z,100667.95
2019-03-27T06:12:13.669Z,100661.38
2019-03-27T06:14:45.020Z,100657.85
2019-03-27T06:17:16.184Z,100657.17
2019-03-27T06:19:47.364Z,100661.98
2019-03-27T06:22:19.806Z,100664.50
2019-03-27T06:24:50.921Z,100664.50
2019-03-27T06:27:23.289Z,100659.66
2019-03-27T06:29:54.573Z,100666.54
2019-03-27T06:32:25.922Z,100661.02
2019-03-27T06:34:57.060Z,100673.70
2019-03-27T06:37:28.289Z,100665.09
2019-03-27T06:39:59.432Z,100665.09
2019-03-27T06:42:30.671Z,100658.95
2019-03-27T06:45:02.163Z,100658.30
2019-03-27T06:47:33.375Z,100649.69
2019-03-27T06:50:06.133Z,100657.04
2019-03-27T06:52:37.373Z,100657.04
2019-03-27T06:55:08.435Z,100657.50
2019-03-27T06:57:40.659Z,100659.98
2019-03-27T07:00:12.029Z,100659.16
2019-03-27T07:02:44.404Z,100661.05
2019-03-27T07:05:15.654Z,100670.31
2019-03-27T07:07:46.934Z,100662.84
2019-03-27T07:10:18.243Z,100668.51
2019-03-27T07:12:51.245Z,100664.37
2019-03-27T07:15:22.332Z,100667.12
2019-03-27T07:17:53.617Z,100671.42
2019-03-27T07:20:24.727Z,100674.25
2019-03-27T07:22:55.659Z,100674.25
2019-03-27T07:25:26.964Z,100666.61
2019-03-27T07:27:58.511Z,100667.44
2019-03-27T07:30:29.676Z,100678.33
2019-03-27T07:33:00.877Z,100666.68
2019-03-27T07:35:31.916Z,100669.02
2019-03-27T07:38:03.033Z,100684.38
2019-03-27T07:40:34.135Z,100688.14
2019-03-27T07:43:05.389Z,100676.75
2019-03-27T07:45:36.588Z,100664.88
2019-03-27T07:48:07.685Z,100667.44
2019-03-27T07:50:38.912Z,100673.73
2019-03-27T07:53:09.951Z,100670.66
2019-03-27T07:55:41.090Z,100664.68
2019-03-27T07:58:12.630Z,100661.65
2019-03-27T08:00:44.024Z,100654.48
2019-03-27T08:03:28.938Z,100668.63
2019-03-27T08:06:05.734Z,100660.27
2019-03-27T08:08:37.146Z,100649.22
2019-03-27T08:11:09.927Z,100649.22
2019-03-27T08:13:40.990Z,100653.83
2019-03-27T08:16:11.994Z,100649.06
2019-03-27T08:18:43.060Z,100649.05
2019-03-27T08:21:14.348Z,100642.42
2019-03-27T08:23:45.607Z,100652.63
2019-03-27T08:26:16.980Z,100653.98
2019-03-27T08:28:48.487Z,100653.98
2019-03-27T08:31:20.082Z,100659.97
2019-03-27T08:33:51.266Z,100650.06
2019-03-27T08:36:22.459Z,100657.22
2019-03-27T08:38:53.770Z,100652.78
2019-03-27T08:41:25.119Z,100656.48
2019-03-27T08:43:57.905Z,100657.52
2019-03-27T08:46:31.719Z,100657.52
2019-03-27T08:49:03.395Z,100647.64
2019-03-27T08:51:34.631Z,100664.36
2019-03-27T08:54:06.252Z,100656.17
2019-03-27T08:56:37.895Z,100661.98
2019-03-27T08:59:09.576Z,100654.33
2019-03-27T09:01:40.719Z,100654.33
2019-03-27T09:04:12.043Z,100666.25
2019-03-27T09:06:43.161Z,100654.33
2019-03-27T09:09:14.233Z,100654.33
2019-03-27T09:11:45.232Z,100664.03
2019-03-27T09:14:16.353Z,100657.89
2019-03-27T09:16:47.456Z,100657.89
2019-03-27T09:19:18.531Z,100661.14
2019-03-27T09:21:49.659Z,100658.05
2019-03-27T09:24:21.001Z,100659.06
2019-03-27T09:26:55.341Z,100655.09
2019-03-27T09:29:26.439Z,100654.66
2019-03-27T09:31:57.523Z,100654.73
2019-03-27T09:34:28.854Z,100650.75
2019-03-27T09:36:59.904Z,100656.79
2019-03-27T09:39:31.159Z,100669.97
2019-03-27T09:42:04.161Z,100662.05
2019-03-27T09:44:36.257Z,100668.89
2019-03-27T09:47:07.648Z,100667.57
2019-03-27T09:49:49.604Z,100664.72
2019-03-27T09:52:11.956Z,100666.92
2019-03-27T09:54:43.285Z,100670.17
2019-03-27T09:57:14.575Z,100651.95
2019-03-27T09:59:47.107Z,100648.69
2019-03-27T10:02:18.088Z,100653.31
2019-03-27T10:04:49.132Z,100660.11
2019-03-27T10:07:20.089Z,100660.11
2019-03-27T10:09:51.115Z,100646.61
2019-03-27T10:12:22.219Z,100649.34
2019-03-27T10:14:53.163Z,100649.34
2019-03-27T10:17:24.257Z,100647.63
2019-03-27T10:20:03.347Z,100647.63
2019-03-27T10:22:28.312Z,100647.06
2019-03-27T10:24:59.383Z,100645.79
2019-03-27T10:27:30.293Z,100643.37
2019-03-27T10:30:01.274Z,100637.95
2019-03-27T10:32:32.679Z,100646.94
2019-03-27T10:35:04.189Z,100646.83
2019-03-27T10:37:35.161Z,100639.65
2019-03-27T10:40:07.854Z,100636.17
2019-03-27T10:42:38.858Z,100635.36
2019-03-27T10:45:10.975Z,100627.30
2019-03-27T10:47:42.092Z,100626.37
2019-03-27T10:50:17.802Z,100626.80
2019-03-27T10:52:46.394Z,100623.84
2019-03-27T10:55:18.648Z,100626.98
2019-03-27T10:57:49.653Z,100627.63
2019-03-27T11:00:20.768Z,100623.98
2019-03-27T11:02:52.139Z,100625.27
2019-03-27T11:05:26.485Z,100618.20
2019-03-27T11:07:59.468Z,100620.44
2019-03-27T11:10:30.700Z,100626.80
2019-03-27T11:13:01.716Z,100614.38
2019-03-27T11:15:32.751Z,100618.20
2019-03-27T11:18:03.655Z,100615.11
2019-03-27T11:20:34.968Z,100620.51
2019-03-27T11:23:05.976Z,100607.55
2019-03-27T11:25:36.919Z,100615.20
2019-03-27T11:28:08.290Z,100611.70
2019-03-27T11:30:39.470Z,100621.94
2019-03-27T11:33:10.712Z,100611.19
2019-03-27T11:35:41.831Z,100604.34
2019-03-27T11:38:12.878Z,100602.95
2019-03-27T11:40:44.452Z,100603.31
2019-03-27T11:43:15.441Z,100604.65
2019-03-27T11:45:48.736Z,100610.27
2019-03-27T11:48:19.533Z,100603.47
2019-03-27T11:50:50.802Z,100601.45
2019-03-27T11:53:21.880Z,100594.90
2019-03-27T11:55:53.062Z,100594.55
2019-03-27T11:58:24.397Z,100601.16
2019-03-27T12:00:55.684Z,100595.02
2019-03-27T12:03:26.637Z,100599.07
2019-03-27T12:05:57.599Z,100602.58
2019-03-27T12:08:28.655Z,100602.58
2019-03-27T12:10:59.770Z,100601.27
2019-03-27T12:13:30.824Z,100612.33
2019-03-27T12:16:01.982Z,100612.84
2019-03-27T12:18:33.310Z,100625.84
2019-03-27T12:21:04.472Z,100618.72
2019-03-27T12:23:35.468Z,100640.87
2019-03-27T12:26:06.653Z,100648.20
2019-03-27T12:28:37.921Z,100657.16
2019-03-27T12:31:09.136Z,100659.16
2019-03-27T12:33:40.183Z,100662.14
2019-03-27T12:36:11.322Z,100673.05
2019-03-27T12:38:42.420Z,100678.95
2019-03-27T12:41:13.727Z,100676.92
2019-03-27T12:43:44.886Z,100682.41
2019-03-27T12:46:16.174Z,100681.84
2019-03-27T12:48:47.285Z,100684.73
2019-03-27T12:51:18.573Z,100680.64
2019-03-27T12:53:49.879Z,100679.21
2019-03-27T12:56:21.054Z,100687.20
2019-03-27T12:58:52.144Z,100691.59
2019-03-27T13:01:23.396Z,100687.92
2019-03-27T13:03:54.679Z,100688.33
2019-03-27T13:06:26.007Z,100693.89
2019-03-27T13:08:57.210Z,100695.34
2019-03-27T13:11:28.394Z,100704.03
2019-03-27T13:13:59.467Z,100710.20
2019-03-27T13:16:30.589Z,100705.37
2019-03-27T13:19:01.665Z,100705.08
2019-03-27T13:21:32.909Z,100710.46
2019-03-27T13:24:03.970Z,100716.60
2019-03-27T13:26:36.633Z,100718.19
2019-03-27T13:29:07.775Z,100714.66
2019-03-27T13:31:39.909Z,100711.38
2019-03-27T13:34:11.101Z,100712.06
2019-03-27T13:36:44.010Z,100714.92
2019-03-27T13:39:15.003Z,100717.41
2019-03-27T13:41:46.110Z,100721.19
2019-03-27T13:44:17.205Z,100714.58
2019-03-27T13:46:48.532Z,100716.13
2019-03-27T13:49:19.606Z,100712.03
2019-03-27T13:51:51.702Z,100711.44
2019-03-27T13:54:22.820Z,100713.37
2019-03-27T13:56:54.126Z,100722.76
2019-03-27T13:59:25.093Z,100723.14
2019-03-27T14:01:56.469Z,100721.78
2019-03-27T14:04:27.643Z,100729.67
2019-03-27T14:06:58.800Z,100714.09
2019-03-27T14:09:32.189Z,100721.50
2019-03-27T14:12:03.343Z,100725.31
2019-03-27T14:14:34.554Z,100728.89
2019-03-27T14:17:05.710Z,100728.75
2019-03-27T14:19:36.837Z,100731.31
2019-03-27T14:22:07.970Z,100730.53
2019-03-27T14:24:39.148Z,100732.90
2019-03-27T14:27:10.329Z,100734.50
2019-03-27T14:29:41.431Z,100736.09
2019-03-27T14:32:12.679Z,100744.39
2019-03-27T14:34:44.329Z,100748.09
2019-03-27T14:37:15.538Z,100750.92
2019-03-27T14:39:46.914Z,100748.56
2019-03-27T14:42:18.058Z,100753.83
2019-03-27T14:44:49.274Z,100757.42
2019-03-27T14:47:20.502Z,100762.17
2019-03-27T14:49:51.660Z,100763.63
2019-03-27T14:52:23.044Z,100763.63
2019-03-27T14:54:54.175Z,100766.16
2019-03-27T14:57:25.508Z,100766.92
2019-03-27T14:59:56.600Z,100766.59
2019-03-27T15:02:27.926Z,100772.56
2019-03-27T15:04:59.098Z,100762.44
2019-03-27T15:07:30.369Z,100777.57
2019-03-27T15:10:01.565Z,100765.94
2019-03-27T15:12:34.726Z,100770.42
2019-03-27T15:15:08.202Z,100774.39
2019-03-27T15:17:40.527Z,100773.72
2019-03-27T15:20:11.676Z,100772.63
2019-03-27T15:22:42.898Z,100771.28
2019-03-27T15:25:14.437Z,100772.28
2019-03-27T15:27:46.950Z,100773.71
2019-03-27T15:30:19.803Z,100773.84
2019-03-27T15:32:50.999Z,100780.72
2019-03-27T15:35:22.256Z,100782.83
2019-03-27T15:37:53.539Z,100783.95
2019-03-27T15:40:40.740Z,100785.33
2019-03-27T15:43:12.093Z,100794.30
2019-03-27T15:45:43.251Z,100796.00
2019-03-27T15:48:16.224Z,100798.92
2019-03-27T15:50:56.833Z,100789.50
2019-03-27T15:53:20.879Z,100796.09
2019-03-27T15:55:52.199Z,100806.66
2019-03-27T15:58:23.438Z,100806.63
2019-03-27T16:00:54.793Z,100809.20
2019-03-27T16:03:26.046Z,100814.84
2019-03-27T16:05:57.685Z,100819.13
2019-03-27T16:08:29.043Z,100818.41
2019-03-27T16:11:00.250Z,100820.34
2019-03-27T16:13:32.574Z,100826.36
2019-03-27T16:16:04.036Z,100827.22
2019-03-27T16:18:36.758Z,100825.84
2019-03-27T16:21:08.076Z,100831.00
2019-03-27T16:23:43.903Z,100835.17
2019-03-27T16:26:15.840Z,100842.66
2019-03-27T16:28:48.227Z,100839.34
2019-03-27T16:31:19.430Z,100839.69
2019-03-27T16:33:55.157Z,100845.83
2019-03-27T16:36:42.610Z,100845.09
2019-03-27T16:39:13.801Z,100848.90
2019-03-27T16:41:45.025Z,100854.89
2019-03-27T16:44:16.474Z,100858.69
2019-03-27T16:46:47.732Z,100865.20
2019-03-27T16:49:18.991Z,100866.17
2019-03-27T16:51:50.685Z,100867.52
2019-03-27T16:54:22.161Z,100873.25
2019-03-27T16:56:54.949Z,100870.31
2019-03-27T16:59:26.187Z,100872.51
2019-03-27T17:01:57.404Z,100877.66
2019-03-27T17:04:28.813Z,100874.11
2019-03-27T17:07:01.736Z,100882.30
2019-03-27T17:09:33.015Z,100886.73
2019-03-27T17:12:04.318Z,100890.72
2019-03-27T17:14:35.593Z,100890.86
2019-03-27T17:17:06.890Z,100890.98
2019-03-27T17:19:38.175Z,100896.27
2019-03-27T17:22:19.412Z,100902.39
2019-03-27T17:24:42.501Z,100904.23
2019-03-27T17:27:13.961Z,100904.59
2019-03-27T17:29:45.273Z,100907.53
2019-03-27T17:32:16.586Z,100906.80
2019-03-27T17:34:47.812Z,100910.95
2019-03-27T17:37:19.035Z,100904.94
2019-03-27T17:39:50.281Z,100906.64
2019-03-27T17:42:21.416Z,100911.67
2019-03-27T17:45:00.687Z,100917.30
2019-03-27T17:51:12.117Z,100915.41
2019-03-27T17:53:45.346Z,100914.89
2019-03-27T17:56:16.726Z,100914.81
2019-03-27T17:58:47.906Z,100908.47
2019-03-27T18:01:19.192Z,100913.61
2019-03-27T18:03:50.352Z,100913.28
2019-03-27T18:06:21.626Z,100913.61
2019-03-27T18:08:54.298Z,100912.27
2019-03-27T18:11:25.613Z,100912.02
2019-03-27T18:13:58.796Z,100916.58
2019-03-27T18:16:29.964Z,100906.64
2019-03-27T18:19:01.138Z,100916.81
2019-03-27T18:21:33.961Z,100912.27
2019-03-27T18:24:05.064Z,100911.94
2019-03-27T18:26:36.371Z,100912.17
2019-03-27T18:29:07.588Z,100908.37
2019-03-27T18:31:38.702Z,100915.97
2019-03-27T18:34:09.910Z,100908.61
2019-03-27T18:36:41.015Z,100902.02
2019-03-27T18:39:13.014Z,100903.10
2019-03-27T18:41:51.229Z,100911.06
2019-03-27T18:44:45.722Z,100908.13
2019-03-27T18:47:20.087Z,100905.56
2019-03-27T18:49:53.566Z,100908.99
2019-03-27T18:52:27.076Z,100912.17
2019-03-27T18:54:58.424Z,100905.34
2019-03-27T18:57:31.613Z,100907.41
2019-03-27T19:00:26.252Z,100916.86
2019-03-27T19:03:20.552Z,100921.02
2019-03-27T19:05:51.864Z,100921.88
2019-03-27T19:08:23.094Z,100924.97
2019-03-27T19:10:54.447Z,100919.31
2019-03-27T19:13:28.058Z,100921.37
2019-03-27T19:15:59.274Z,100917.56
2019-03-27T19:18:31.459Z,100921.12
2019-03-27T19:21:02.698Z,100920.88
2019-03-27T19:23:33.851Z,100927.01
2019-03-27T19:26:05.558Z,100925.91
2019-03-27T19:28:36.849Z,100930.33
2019-03-27T19:31:07.903Z,100926.66
2019-03-27T19:33:41.442Z,100926.45
2019-03-27T19:36:12.480Z,100925.10
2019-03-27T19:38:43.626Z,100921.04
2019-03-27T19:41:17.624Z,100923.95
2019-03-27T19:43:52.610Z,100931.70
2019-03-27T19:46:23.883Z,100933.64
2019-03-27T19:48:55.231Z,100943.33
2019-03-27T19:51:30.896Z,100942.63
2019-03-27T19:54:03.994Z,100944.17
2019-03-27T19:56:35.443Z,100946.75
2019-03-27T19:59:06.563Z,100950.65
2019-03-27T20:01:39.388Z,100955.44
2019-03-27T20:04:10.509Z,100950.17
2019-03-27T20:06:41.727Z,100958.13
2019-03-27T20:09:12.952Z,100960.14
2019-03-27T20:11:44.303Z,100965.76
2019-03-27T20:14:15.672Z,100965.87
2019-03-27T20:16:52.295Z,100962.47
2019-03-27T20:19:25.440Z,100965.04
2019-03-27T20:21:57.236Z,100968.43
2019-03-27T20:24:40.516Z,100976.30
2019-03-27T20:27:18.051Z,100979.23
2019-03-27T20:29:50.753Z,100980.34
2019-03-27T20:32:22.308Z,100985.39
2019-03-27T20:34:53.576Z,100986.84
2019-03-27T20:37:24.823Z,100980.10
2019-03-27T20:39:57.609Z,100990.03
2019-03-27T20:42:28.764Z,100986.26
2019-03-27T20:45:02.653Z,100993.02
2019-03-27T20:47:36.623Z,100989.70
2019-03-27T20:50:13.742Z,100989.56
2019-03-27T20:52:47.994Z,100991.55
2019-03-27T20:55:30.119Z,100995.83
2019-03-27T20:57:54.676Z,101000.23
2019-03-27T21:00:26.064Z,101008.08
2019-03-27T21:02:58.179Z,101001.44
2019-03-27T21:05:29.529Z,101017.61
2019-03-27T21:08:00.836Z,101008.66
2019-03-27T21:10:34.845Z,101009.74
2019-03-27T21:13:10.152Z,101012.95
2019-03-27T21:15:41.304Z,101019.59
2019-03-27T21:18:15.456Z,101024.23
2019-03-27T21:20:49.976Z,101021.66
2019-03-27T21:23:22.687Z,101024.98
2019-03-27T21:25:53.924Z,101028.78
2019-03-27T21:28:26.094Z,101030.48
2019-03-27T21:30:57.210Z,101021.08
2019-03-27T21:33:30.008Z,101024.98
2019-03-27T21:36:01.537Z,101028.20
2019-03-27T21:38:34.044Z,101033.08
2019-03-27T21:41:05.134Z,101041.31
2019-03-27T21:43:36.383Z,101037.76
2019-03-27T21:46:07.492Z,101041.30
2019-03-27T21:48:38.755Z,101041.80
2019-03-27T21:51:10.384Z,101046.11
2019-03-27T21:53:42.294Z,101046.11
2019-03-27T21:56:13.649Z,101054.32
2019-03-27T21:58:44.884Z,101059.45
2019-03-27T22:01:16.085Z,101053.81
2019-03-27T22:03:47.163Z,101069.48
2019-03-27T22:06:18.359Z,101065.56
2019-03-27T22:08:49.635Z,101064.06
2019-03-27T22:11:21.007Z,101070.17
2019-03-27T22:13:52.398Z,101063.31
2019-03-27T22:16:23.638Z,101074.49
2019-03-27T22:18:54.701Z,101072.75
2019-03-27T22:21:27.027Z,101072.27
2019-03-27T22:23:58.114Z,101073.38
2019-03-27T22:26:33.858Z,101086.86
2019-03-27T22:29:05.298Z,101087.70
2019-03-27T22:31:36.666Z,101090.52
2019-03-27T22:34:07.907Z,101094.32
2019-03-27T22:36:39.302Z,101091.11
2019-03-27T22:39:10.522Z,101102.25
2019-03-27T22:41:41.738Z,101098.36
2019-03-27T22:44:12.877Z,101095.43
2019-03-27T22:46:45.214Z,101107.28
2019-03-27T22:49:19.171Z,101104.95
2019-03-27T22:51:50.414Z,101108.63
2019-03-27T22:54:21.515Z,101101.37
2019-03-27T22:56:52.996Z,101110.34
2019-03-27T22:59:23.969Z,101111.33
2019-03-27T23:01:55.120Z,101114.34
2019-03-27T23:04:26.255Z,101112.16
2019-03-27T23:06:57.407Z,101110.17
2019-03-27T23:09:28.521Z,101118.54
2019-03-27T23:11:59.797Z,101119.25
2019-03-27T23:14:31.080Z,101124.88
2019-03-27T23:17:02.229Z,101117.55
2019-03-27T23:19:33.367Z,101124.05
2019-03-27T23:22:04.516Z,101118.78
2019-03-27T23:24:35.612Z,101121.36
2019-03-27T23:27:06.764Z,101118.97
2019-03-27T23:29:39.124Z,101116.80
2019-03-27T23:32:10.224Z,101124.28
2019-03-27T23:34:41.419Z,101126.11
2019-03-27T23:37:12.590Z,101133.95
2019-03-27T23:39:43.899Z,101138.48
2019-03-27T23:42:16.270Z,101148.97
2019-03-27T23:44:47.632Z,101144.73
2019-03-27T23:47:18.752Z,101150.12
2019-03-27T23:49:49.987Z,101152.30
2019-03-27T23:52:21.038Z,101156.86
2019-03-27T23:54:52.222Z,101159.98
2019-03-27T23:57:24.167Z,101163.62
2019-03-27T23:59:55.381Z,101153.83
